createdAt,value
2019-02-12T00:00:46.392Z,21.27
2019-02-12T00:03:15.688Z,19.97
2019-02-12T00:05:44.989Z,17.33
2019-02-12T00:08:14.264Z,17.80
2019-02-12T00:10:43.633Z,15.67
2019-02-12T00:13:12.999Z,16.33
2019-02-12T00:15:42.293Z,16.17
2019-02-12T00:18:11.860Z,18.87
2019-02-12T00:20:41.167Z,18.13
2019-02-12T00:23:10.768Z,20.93
2019-02-12T00:25:40.061Z,19.40
2019-02-12T00:28:09.975Z,21.70
2019-02-12T00:30:39.267Z,23.20
2019-02-12T00:33:08.648Z,27.17
2019-02-12T00:35:38.021Z,26.63
2019-02-12T00:38:07.680Z,26.83
2019-02-12T00:40:37.281Z,32.53
2019-02-12T00:43:06.578Z,30.97
2019-02-12T00:45:36.296Z,32.67
2019-02-12T00:48:05.661Z,37.53
2019-02-12T00:50:34.951Z,36.53
2019-02-12T00:53:04.236Z,34.77
2019-02-12T00:55:33.536Z,33.60
2019-02-12T00:58:02.856Z,35.10
2019-02-12T01:00:32.146Z,30.57
2019-02-12T01:03:01.796Z,29.93
2019-02-12T01:05:31.412Z,29.97
2019-02-12T01:08:00.727Z,29.50
2019-02-12T01:10:30.010Z,18.70
2019-02-12T01:12:59.612Z,15.23
2019-02-12T01:15:29.276Z,14.50
2019-02-12T01:17:58.588Z,15.07
2019-02-12T01:20:28.530Z,13.53
2019-02-12T01:22:58.144Z,14.30
2019-02-12T01:25:27.430Z,15.37
2019-02-12T01:27:56.754Z,14.27
2019-02-12T01:30:26.046Z,14.47
2019-02-12T01:32:55.752Z,13.67
2019-02-12T01:35:25.058Z,15.50
2019-02-12T01:37:54.384Z,13.50
2019-02-12T01:40:24.055Z,13.50
2019-02-12T01:42:53.375Z,13.30
2019-02-12T01:45:22.669Z,13.17
2019-02-12T01:47:52.266Z,12.70
2019-02-12T01:50:21.967Z,12.93
2019-02-12T01:52:51.267Z,12.10
2019-02-12T01:55:20.574Z,11.90
2019-02-12T01:57:49.959Z,12.93
2019-02-12T02:00:19.252Z,10.63
2019-02-12T02:02:48.559Z,10.87
2019-02-12T02:05:18.155Z,11.50
2019-02-12T02:07:47.534Z,11.20
2019-02-12T02:10:18.176Z,11.93
2019-02-12T02:12:47.493Z,11.20
2019-02-12T02:15:17.464Z,11.73
2019-02-12T02:17:47.179Z,10.23
2019-02-12T02:20:16.835Z,11.47
2019-02-12T02:22:46.169Z,11.23
2019-02-12T02:25:15.577Z,11.83
2019-02-12T02:27:45.233Z,11.87
2019-02-12T02:30:15.582Z,12.30
2019-02-12T02:32:44.970Z,12.63
2019-02-12T02:35:14.272Z,13.47
2019-02-12T02:37:43.643Z,11.83
2019-02-12T02:40:12.992Z,11.60
2019-02-12T02:42:42.295Z,11.73
2019-02-12T02:45:12.335Z,12.20
2019-02-12T02:47:41.708Z,12.77
2019-02-12T02:50:11.160Z,14.33
2019-02-12T02:52:40.539Z,14.23
2019-02-12T02:55:10.173Z,13.20
2019-02-12T02:57:39.507Z,15.17
2019-02-12T03:00:09.708Z,15.00
2019-02-12T03:02:39.013Z,15.90
2019-02-12T03:05:09.897Z,16.00
2019-02-12T03:07:39.304Z,17.03
2019-02-12T03:10:09.101Z,17.30
2019-02-12T03:12:38.764Z,17.63
2019-02-12T03:15:09.143Z,17.40
2019-02-12T03:17:38.634Z,15.93
2019-02-12T03:20:09.276Z,16.30
2019-02-12T03:22:38.718Z,16.93
2019-02-12T03:25:08.485Z,15.17
2019-02-12T03:27:37.734Z,13.77
2019-02-12T03:30:07.617Z,13.77
2019-02-12T03:32:37.302Z,13.73
2019-02-12T03:35:07.468Z,14.80
2019-02-12T03:37:37.143Z,14.90
2019-02-12T03:40:07.639Z,13.90
2019-02-12T03:42:37.011Z,13.33
2019-02-12T03:45:06.851Z,12.90
2019-02-12T03:47:37.253Z,13.23
2019-02-12T03:50:07.395Z,12.97
2019-02-12T03:52:36.611Z,13.53
2019-02-12T03:55:06.670Z,11.73
2019-02-12T03:57:36.149Z,13.73
2019-02-12T04:00:05.945Z,11.83
2019-02-12T04:02:35.170Z,11.10
2019-02-12T04:05:04.633Z,11.30
2019-02-12T04:07:33.861Z,13.73
2019-02-12T04:10:03.027Z,12.57
2019-02-12T04:12:32.251Z,12.87
2019-02-12T04:15:01.773Z,12.57
2019-02-12T04:17:30.955Z,12.47
2019-02-12T04:20:05.300Z,12.17
2019-02-12T04:22:38.230Z,12.57
2019-02-12T04:25:07.490Z,14.00
2019-02-12T04:27:36.700Z,13.40
2019-02-12T04:30:06.157Z,12.83
2019-02-12T04:32:35.399Z,12.07
2019-02-12T04:35:04.614Z,12.50
2019-02-12T04:37:33.842Z,12.57
2019-02-12T04:40:03.101Z,12.90
2019-02-12T04:42:32.730Z,12.73
2019-02-12T04:45:02.052Z,13.93
2019-02-12T04:47:31.200Z,15.00
2019-02-12T04:50:00.798Z,15.87
2019-02-12T04:52:31.922Z,16.17
2019-02-12T04:55:01.042Z,17.83
2019-02-12T04:57:30.483Z,17.23
2019-02-12T04:59:59.749Z,17.63
2019-02-12T05:02:29.624Z,18.73
2019-02-12T05:04:58.875Z,21.03
2019-02-12T05:07:28.113Z,23.10
2019-02-12T05:09:57.289Z,21.43
2019-02-12T05:12:26.693Z,26.73
2019-02-12T05:14:55.937Z,26.80
2019-02-12T05:17:25.240Z,27.80
2019-02-12T05:19:54.490Z,27.93
2019-02-12T05:22:23.727Z,26.57
2019-02-12T05:24:53.226Z,29.93
2019-02-12T05:27:22.454Z,29.87
2019-02-12T05:29:51.601Z,30.43
2019-02-12T05:32:20.807Z,41.07
2019-02-12T05:34:50.321Z,35.63
2019-02-12T05:37:19.600Z,32.10
2019-02-12T05:39:49.005Z,29.70
2019-02-12T05:42:18.255Z,29.87
2019-02-12T05:44:47.470Z,30.40
2019-02-12T05:47:16.693Z,29.00
2019-02-12T05:49:46.068Z,29.77
2019-02-12T05:52:15.247Z,31.40
2019-02-12T05:54:44.997Z,32.83
2019-02-12T05:57:14.571Z,33.20
2019-02-12T05:59:43.801Z,32.97
2019-02-12T06:02:12.990Z,31.93
2019-02-12T06:04:42.237Z,33.47
2019-02-12T06:07:17.924Z,33.90
2019-02-12T06:09:47.099Z,36.67
2019-02-12T06:12:16.241Z,36.43
2019-02-12T06:14:45.649Z,36.90
2019-02-12T06:17:15.443Z,38.20
2019-02-12T06:19:44.741Z,38.60
2019-02-12T06:22:13.922Z,36.23
2019-02-12T06:24:43.056Z,34.37
2019-02-12T06:27:12.202Z,36.27
2019-02-12T06:29:41.736Z,36.10
2019-02-12T06:32:11.352Z,35.63
2019-02-12T06:34:40.880Z,33.50
2019-02-12T06:37:10.427Z,34.80
2019-02-12T06:39:39.674Z,35.20
2019-02-12T06:42:08.829Z,33.43
2019-02-12T06:44:38.034Z,36.17
2019-02-12T06:47:07.350Z,34.03
2019-02-12T06:49:37.090Z,34.87
2019-02-12T06:52:06.522Z,34.67
2019-02-12T06:54:35.770Z,35.07
2019-02-12T06:57:04.962Z,34.47
2019-02-12T06:59:34.548Z,34.57
2019-02-12T07:02:39.685Z,32.73
2019-02-12T07:05:09.371Z,32.17
2019-02-12T07:08:25.677Z,31.70
2019-02-12T07:10:55.556Z,31.20
2019-02-12T07:13:42.568Z,30.37
2019-02-12T07:16:51.240Z,30.47
2019-02-12T07:19:49.966Z,31.13
2019-02-12T07:22:59.573Z,29.57
2019-02-12T07:25:55.223Z,33.53
2019-02-12T07:29:10.749Z,33.37
2019-02-12T07:32:09.435Z,34.77
2019-02-12T07:35:32.212Z,35.50
2019-02-12T07:38:26.517Z,34.57
2019-02-12T07:41:30.094Z,33.87
2019-02-12T07:44:21.892Z,33.30
2019-02-12T07:47:30.713Z,34.17
2019-02-12T07:50:30.644Z,32.77
2019-02-12T07:53:41.381Z,32.23
2019-02-12T07:56:39.745Z,33.70
2019-02-12T07:59:42.445Z,31.03
2019-02-12T08:02:38.724Z,30.00
2019-02-12T08:05:33.686Z,29.50
2019-02-12T08:08:49.193Z,28.63
2019-02-12T08:11:53.017Z,28.83
2019-02-12T08:14:46.966Z,28.47
2019-02-12T08:17:51.521Z,30.00
2019-02-12T08:21:03.804Z,29.83
2019-02-12T08:24:10.306Z,31.17
2019-02-12T08:26:59.810Z,32.60
2019-02-12T08:30:12.289Z,31.90
2019-02-12T08:33:30.737Z,32.17
2019-02-12T08:36:12.489Z,30.40
2019-02-12T08:39:18.131Z,32.37
2019-02-12T08:42:28.536Z,33.27
2019-02-12T08:45:25.621Z,32.30
2019-02-12T08:48:27.087Z,32.10
2019-02-12T08:51:31.119Z,31.57
2019-02-12T08:54:41.886Z,33.03
2019-02-12T08:58:01.089Z,33.73
2019-02-12T09:00:51.962Z,33.93
2019-02-12T09:03:52.001Z,33.17
2019-02-12T09:06:53.269Z,32.67
2019-02-12T09:09:58.587Z,31.40
2019-02-12T09:13:12.410Z,28.87
2019-02-12T09:16:17.101Z,29.83
2019-02-12T09:19:10.081Z,29.17
2019-02-12T09:22:13.091Z,28.03
2019-02-12T09:25:06.171Z,29.23
2019-02-12T09:28:07.954Z,28.50
2019-02-12T09:31:18.842Z,28.03
2019-02-12T09:34:34.431Z,26.20
2019-02-12T09:37:57.070Z,25.63
2019-02-12T09:40:51.088Z,24.17
2019-02-12T09:44:16.516Z,23.50
2019-02-12T09:47:30.068Z,21.20
2019-02-12T09:50:43.601Z,18.83
2019-02-12T09:54:08.419Z,17.77
2019-02-12T09:57:12.832Z,17.10
2019-02-12T10:00:01.404Z,16.30
2019-02-12T10:03:11.685Z,16.30
2019-02-12T10:06:21.762Z,16.70
2019-02-12T10:09:55.039Z,15.30
2019-02-12T10:13:01.209Z,15.37
2019-02-12T10:16:32.561Z,14.47
2019-02-12T10:19:28.266Z,14.30
2019-02-12T10:22:19.167Z,13.93
2019-02-12T10:24:58.563Z,13.33
2019-02-12T10:28:08.752Z,13.00
2019-02-12T10:30:55.367Z,13.70
2019-02-12T10:33:25.013Z,12.70
2019-02-12T10:35:54.189Z,13.40
2019-02-12T10:38:23.402Z,12.03
2019-02-12T10:40:53.149Z,12.30
2019-02-12T10:43:22.465Z,11.17
2019-02-12T10:45:52.009Z,11.37
2019-02-12T10:48:21.639Z,11.73
2019-02-12T10:50:51.248Z,11.93
2019-02-12T10:53:21.067Z,11.43
2019-02-12T10:55:50.613Z,11.07
2019-02-12T10:58:19.899Z,11.67
2019-02-12T11:00:49.837Z,10.53
2019-02-12T11:03:19.101Z,10.40
2019-02-12T11:05:48.463Z,10.40
2019-02-12T11:08:17.685Z,10.00
2019-02-12T11:10:47.176Z,10.13
2019-02-12T11:13:16.426Z,9.80
2019-02-12T11:15:45.678Z,9.23
2019-02-12T11:18:15.150Z,9.37
2019-02-12T11:20:44.331Z,9.87
2019-02-12T11:23:13.502Z,9.67
2019-02-12T11:25:42.790Z,9.17
2019-02-12T11:28:12.020Z,9.30
2019-02-12T11:30:41.192Z,9.27
2019-02-12T11:33:10.658Z,8.53
2019-02-12T11:35:39.890Z,8.13
2019-02-12T11:38:09.128Z,8.40
2019-02-12T11:40:38.643Z,7.90
2019-02-12T11:43:07.884Z,9.10
2019-02-12T11:45:37.036Z,8.30
2019-02-12T11:48:06.532Z,8.73
2019-02-12T11:50:35.779Z,9.03
2019-02-12T11:53:05.285Z,8.70
2019-02-12T11:55:34.583Z,9.03
2019-02-12T11:58:04.596Z,8.07
2019-02-12T12:00:39.499Z,7.30
2019-02-12T12:03:16.064Z,8.47
2019-02-12T12:05:45.899Z,7.83
2019-02-12T12:08:15.059Z,8.23
2019-02-12T12:10:44.583Z,8.60
2019-02-12T12:13:13.830Z,8.40
2019-02-12T12:15:43.257Z,8.20
2019-02-12T12:18:12.434Z,8.97
2019-02-12T12:20:41.671Z,8.03
2019-02-12T12:23:10.893Z,8.43
2019-02-12T12:25:40.536Z,8.10
2019-02-12T12:28:09.793Z,8.10
2019-02-12T12:30:39.399Z,7.63
2019-02-12T12:33:09.071Z,8.23
2019-02-12T12:35:38.220Z,8.30
2019-02-12T12:38:07.676Z,7.93
2019-02-12T12:40:37.189Z,7.57
2019-02-12T12:43:06.493Z,7.37
2019-02-12T12:45:36.092Z,7.47
2019-02-12T12:48:05.341Z,6.73
2019-02-12T12:50:34.588Z,7.37
2019-02-12T12:53:03.774Z,7.53
2019-02-12T12:55:33.660Z,7.80
2019-02-12T12:58:02.837Z,7.60
2019-02-12T13:00:32.068Z,7.40
2019-02-12T13:03:01.407Z,8.00
2019-02-12T13:05:30.719Z,5.93
2019-02-12T13:07:59.882Z,6.60
2019-02-12T13:10:29.108Z,6.57
2019-02-12T13:12:58.682Z,6.20
2019-02-12T13:15:27.924Z,5.70
2019-02-12T13:17:57.984Z,5.73
2019-02-12T13:20:27.180Z,6.00
2019-02-12T13:22:56.692Z,6.30
2019-02-12T13:25:25.930Z,5.70
2019-02-12T13:27:55.836Z,5.50
2019-02-12T13:30:25.108Z,4.53
2019-02-12T13:32:54.715Z,4.07
2019-02-12T13:35:23.867Z,4.70
2019-02-12T13:37:53.651Z,4.53
2019-02-12T13:40:23.001Z,4.50
2019-02-12T13:42:52.248Z,4.23
2019-02-12T13:45:21.507Z,4.73
2019-02-12T13:47:50.701Z,4.40
2019-02-12T13:50:19.933Z,4.60
2019-02-12T13:52:49.565Z,5.00
2019-02-12T13:55:19.166Z,5.20
2019-02-12T13:57:48.384Z,5.10
2019-02-12T14:00:17.689Z,5.10
2019-02-12T14:02:47.407Z,5.43
2019-02-12T14:05:17.474Z,5.10
2019-02-12T14:07:46.745Z,4.63
2019-02-12T14:10:16.347Z,4.67
2019-02-12T14:12:47.589Z,5.07
2019-02-12T14:15:18.713Z,4.80
2019-02-12T14:17:47.887Z,4.70
2019-02-12T14:20:17.461Z,5.17
2019-02-12T14:22:46.696Z,4.97
2019-02-12T14:25:16.135Z,5.00
2019-02-12T14:27:45.275Z,5.50
2019-02-12T14:30:14.596Z,4.93
2019-02-12T14:32:43.761Z,5.27
2019-02-12T14:35:13.913Z,5.40
2019-02-12T14:37:43.445Z,6.00
2019-02-12T14:40:12.962Z,6.43
2019-02-12T14:42:42.463Z,6.73
2019-02-12T14:45:12.748Z,6.13
2019-02-12T14:47:41.898Z,6.67
2019-02-12T14:50:12.224Z,6.47
2019-02-12T14:52:41.430Z,6.63
2019-02-12T14:55:10.890Z,6.37
2019-02-12T14:57:40.681Z,6.23
2019-02-12T15:00:12.559Z,7.23
2019-02-12T15:02:41.897Z,7.23
2019-02-12T15:05:11.348Z,7.63
2019-02-12T15:07:40.850Z,7.83
2019-02-12T15:10:10.878Z,7.30
2019-02-12T15:12:40.026Z,7.57
2019-02-12T15:15:09.804Z,7.70
2019-02-12T15:17:38.971Z,7.57
2019-02-12T15:20:08.836Z,6.73
2019-02-12T15:22:38.129Z,6.80
2019-02-12T15:25:08.276Z,8.00
2019-02-12T15:27:37.821Z,8.27
2019-02-12T15:30:09.169Z,9.47
2019-02-12T15:32:38.318Z,8.60
2019-02-12T15:35:08.796Z,7.87
2019-02-12T15:37:37.959Z,8.10
2019-02-12T15:40:09.474Z,7.37
2019-02-12T15:42:38.693Z,7.90
2019-02-12T15:45:10.043Z,7.07
2019-02-12T15:47:39.217Z,8.60
2019-02-12T15:50:09.531Z,7.70
2019-02-12T15:52:38.711Z,7.87
2019-02-12T15:55:09.342Z,7.83
2019-02-12T15:57:40.298Z,7.90
2019-02-12T16:00:15.670Z,7.77
2019-02-12T16:02:45.939Z,8.50
2019-02-12T16:05:15.196Z,7.30
2019-02-12T16:07:46.701Z,7.37
2019-02-12T16:10:17.770Z,7.40
2019-02-12T16:12:48.926Z,7.40
2019-02-12T16:15:21.144Z,6.97
2019-02-12T16:17:49.751Z,6.90
2019-02-12T16:20:19.595Z,7.00
2019-02-12T16:22:48.831Z,6.70
2019-02-12T16:25:18.366Z,7.20
2019-02-12T16:27:47.583Z,7.63
2019-02-12T16:30:43.927Z,7.13
2019-02-12T16:33:13.164Z,7.80
2019-02-12T16:35:42.383Z,8.53
2019-02-12T16:38:11.866Z,8.70
2019-02-12T16:40:41.784Z,8.47
2019-02-12T16:43:11.193Z,8.70
2019-02-12T16:45:47.676Z,8.77
2019-02-12T16:48:16.825Z,8.67
2019-02-12T16:50:46.178Z,8.30
2019-02-12T16:53:15.323Z,9.23
2019-02-12T16:55:44.559Z,9.37
2019-02-12T16:58:13.889Z,9.30
2019-02-12T17:00:43.394Z,9.27
2019-02-12T17:03:12.586Z,9.40
2019-02-12T17:05:42.122Z,9.83
2019-02-12T17:08:12.036Z,9.40
2019-02-12T17:10:41.217Z,8.97
2019-02-12T17:13:10.474Z,9.43
2019-02-12T17:15:39.725Z,17.53
2019-02-12T17:18:09.028Z,9.90
2019-02-12T17:20:38.377Z,9.90
2019-02-12T17:23:07.736Z,10.57
2019-02-12T17:25:36.943Z,10.43
2019-02-12T17:28:06.194Z,9.17
2019-02-12T17:30:35.424Z,9.73
2019-02-12T17:33:04.586Z,10.47
2019-02-12T17:35:33.844Z,10.43
2019-02-12T17:38:03.413Z,9.90
2019-02-12T17:40:33.047Z,9.73
2019-02-12T17:43:02.237Z,10.73
2019-02-12T17:45:31.445Z,10.73
2019-02-12T17:48:00.631Z,10.37
2019-02-12T17:50:30.125Z,10.87
2019-02-12T17:52:59.393Z,10.77
2019-02-12T17:55:28.689Z,11.03
2019-02-12T17:57:57.959Z,10.97
2019-02-12T18:00:30.330Z,10.77
2019-02-12T18:02:59.622Z,11.53
2019-02-12T18:05:29.261Z,11.30
2019-02-12T18:07:58.526Z,11.03
2019-02-12T18:10:27.805Z,11.10
2019-02-12T18:12:57.039Z,11.83
2019-02-12T18:15:26.593Z,11.57
2019-02-12T18:17:55.779Z,11.00
2019-02-12T18:20:26.796Z,11.37
2019-02-12T18:22:56.577Z,11.00
2019-02-12T18:25:25.795Z,11.57
2019-02-12T18:27:55.397Z,12.70
2019-02-12T18:30:25.019Z,12.10
2019-02-12T18:32:54.270Z,12.67
2019-02-12T18:35:24.261Z,13.37
2019-02-12T18:37:53.593Z,12.80
2019-02-12T18:40:23.574Z,13.07
2019-02-12T18:42:53.288Z,13.23
2019-02-12T18:45:22.528Z,13.70
2019-02-12T18:47:51.906Z,13.17
2019-02-12T18:50:21.158Z,12.57
2019-02-12T18:52:50.358Z,12.67
2019-02-12T18:55:20.073Z,11.80
2019-02-12T18:57:53.360Z,13.03
2019-02-12T19:00:24.970Z,13.03
2019-02-12T19:02:57.257Z,12.93
2019-02-12T19:05:28.300Z,13.63
2019-02-12T19:08:00.663Z,13.40
2019-02-12T19:10:30.831Z,13.33
2019-02-12T19:13:05.427Z,13.40
2019-02-12T19:15:38.956Z,14.60
2019-02-12T19:18:11.059Z,15.43
2019-02-12T19:20:40.229Z,14.53
2019-02-12T19:23:09.495Z,14.30
2019-02-12T19:25:39.162Z,14.60
2019-02-12T19:28:08.542Z,15.93
2019-02-12T19:30:37.961Z,14.67
2019-02-12T19:33:07.271Z,14.53
2019-02-12T19:35:36.503Z,15.70
2019-02-12T19:38:05.793Z,15.67
2019-02-12T19:40:35.705Z,16.13
2019-02-12T19:43:04.909Z,16.47
2019-02-12T19:45:34.221Z,15.10
2019-02-12T19:48:03.516Z,14.27
2019-02-12T19:50:33.238Z,14.63
2019-02-12T19:53:02.502Z,13.60
2019-02-12T19:55:31.694Z,14.27
2019-02-12T19:58:01.090Z,14.60
2019-02-12T20:00:32.479Z,14.37
2019-02-12T20:03:01.635Z,14.63
2019-02-12T20:05:30.979Z,15.20
2019-02-12T20:08:00.209Z,15.33
2019-02-12T20:10:30.172Z,15.00
2019-02-12T20:12:59.754Z,14.47
2019-02-12T20:15:28.913Z,14.00
2019-02-12T20:17:58.385Z,14.50
2019-02-12T20:20:27.566Z,14.47
2019-02-12T20:22:56.853Z,14.60
2019-02-12T20:25:26.011Z,15.00
2019-02-12T20:27:55.200Z,19.83
2019-02-12T20:30:24.436Z,15.00
2019-02-12T20:32:53.796Z,14.93
2019-02-12T20:35:22.962Z,15.67
2019-02-12T20:37:52.286Z,15.80
2019-02-12T20:40:21.615Z,16.47
2019-02-12T20:42:50.814Z,15.90
2019-02-12T20:45:20.463Z,16.37
2019-02-12T20:47:49.630Z,16.53
2019-02-12T20:50:19.143Z,16.63
2019-02-12T20:52:48.300Z,17.77
2019-02-12T20:55:17.461Z,18.50
2019-02-12T20:57:46.672Z,16.87
2019-02-12T21:00:17.208Z,17.10
2019-02-12T21:02:46.435Z,18.50
2019-02-12T21:05:16.146Z,17.43
2019-02-12T21:07:45.850Z,17.27
2019-02-12T21:10:16.181Z,17.70
2019-02-12T21:12:45.713Z,18.63
2019-02-12T21:15:17.189Z,17.87
2019-02-12T21:17:46.373Z,18.60
2019-02-12T21:20:15.898Z,18.87
2019-02-12T21:22:45.207Z,18.60
2019-02-12T21:25:14.549Z,18.13
2019-02-12T21:27:43.717Z,18.10
2019-02-12T21:30:15.936Z,16.53
2019-02-12T21:32:45.717Z,18.27
2019-02-12T21:35:15.370Z,17.77
2019-02-12T21:37:44.918Z,18.37
2019-02-12T21:40:16.578Z,16.83
2019-02-12T21:42:48.076Z,17.70
2019-02-12T21:45:19.825Z,18.23
2019-02-12T21:47:51.688Z,18.47
2019-02-12T21:50:23.002Z,18.07
2019-02-12T21:52:56.696Z,17.87
2019-02-12T21:55:26.005Z,17.97
2019-02-12T21:57:55.268Z,19.47
2019-02-12T22:00:24.482Z,17.63
2019-02-12T22:02:53.675Z,18.30
2019-02-12T22:05:23.017Z,17.57
2019-02-12T22:07:52.503Z,17.30
2019-02-12T22:10:21.668Z,18.17
2019-02-12T22:12:50.842Z,18.67
2019-02-12T22:15:19.976Z,18.57
2019-02-12T22:17:49.152Z,19.87
2019-02-12T22:20:18.788Z,19.07
2019-02-12T22:22:48.031Z,19.60
2019-02-12T22:25:17.262Z,20.30
2019-02-12T22:27:46.497Z,18.40
2019-02-12T22:30:17.846Z,19.37
2019-02-12T22:32:47.072Z,19.83
2019-02-12T22:35:16.290Z,19.97
2019-02-12T22:37:45.845Z,19.83
2019-02-12T22:40:15.375Z,21.47
2019-02-12T22:42:44.679Z,20.93
2019-02-12T22:45:15.856Z,21.73
2019-02-12T22:47:45.099Z,21.67
2019-02-12T22:50:14.394Z,22.17
2019-02-12T22:52:43.568Z,22.47
2019-02-12T22:55:13.242Z,22.80
2019-02-12T22:57:49.003Z,22.67
2019-02-12T23:00:33.843Z,24.63
2019-02-12T23:03:03.114Z,24.20
2019-02-12T23:05:32.401Z,24.07
2019-02-12T23:08:01.993Z,24.20
2019-02-12T23:10:31.919Z,25.07
2019-02-12T23:13:01.215Z,24.13
2019-02-12T23:15:30.807Z,24.37
2019-02-12T23:17:59.986Z,24.13
2019-02-12T23:20:29.262Z,24.03
2019-02-12T23:22:58.432Z,24.10
2019-02-12T23:25:27.963Z,24.63
2019-02-12T23:27:57.863Z,24.80
2019-02-12T23:30:27.594Z,23.40
2019-02-12T23:32:57.093Z,25.87
2019-02-12T23:35:26.255Z,24.47
2019-02-12T23:37:55.488Z,22.50
2019-02-12T23:40:24.825Z,22.87
2019-02-12T23:42:53.992Z,22.57
2019-02-12T23:45:23.168Z,22.87
2019-02-12T23:47:52.413Z,22.00
2019-02-12T23:50:21.628Z,21.40
2019-02-12T23:52:50.877Z,21.83
2019-02-12T23:55:20.109Z,22.13
2019-02-12T23:57:49.289Z,22.53
